Terminal Aerodrome Forecast
Issued by NWS

Home | Current Version | Previous Version | Text Only | Print | Product List | Glossary On
Versions: 1 2 3 4 5 6 7 8 9 10 11 12
000
FTUS43 KDTX 241720
TAFMBS
TAF
KMBS 241720Z 2418/2518 22013KT P6SM BKN150
     FM242200 13006KT P6SM BKN090 OVC150
     FM250100 15006KT P6SM -SHRA BKN060 OVC120
     FM250400 19005KT P6SM OVC060
     FM251400 20016G23KT P6SM BKN060 OVC120=

USA.gov is the U.S. government's official web portal to all federal, state and local government web resources and services.